createdAt,value
2018-04-24T00:08:32.814Z,10.62
2018-04-24T00:18:32.290Z,10.58
2018-04-24T00:28:32.414Z,10.42
2018-04-24T00:38:32.344Z,10.46
2018-04-24T00:48:32.319Z,10.17
2018-04-24T00:58:32.406Z,10.14
2018-04-24T01:08:32.442Z,10.15
2018-04-24T01:18:43.121Z,10.33
2018-04-24T01:28:39.767Z,10.36
2018-04-24T01:38:32.354Z,10.47
2018-04-24T01:48:32.393Z,10.58
2018-04-24T01:58:33.447Z,10.56
2018-04-24T02:08:32.395Z,10.4
2018-04-24T02:18:32.414Z,10.47
2018-04-24T02:28:32.441Z,10.46
2018-04-24T02:38:32.432Z,10.47
2018-04-24T02:48:32.489Z,10.43
2018-04-24T02:58:32.486Z,10.36
2018-04-24T03:08:32.528Z,10.15
2018-04-24T03:18:32.490Z,10.15
2018-04-24T03:28:32.476Z,9.99
2018-04-24T03:38:32.584Z,9.78
2018-04-24T03:48:32.481Z,9.78
2018-04-24T03:58:32.474Z,9.83
2018-04-24T04:08:32.531Z,10.06
2018-04-24T04:18:32.548Z,10.24
2018-04-24T04:28:32.557Z,10.44
2018-04-24T04:38:32.501Z,10.68
2018-04-24T04:48:32.663Z,10.88
2018-04-24T04:58:32.585Z,11.07
2018-04-24T05:08:32.548Z,11.1
2018-04-24T05:18:32.561Z,11.17
2018-04-24T05:28:32.647Z,11.13
2018-04-24T05:38:32.706Z,11.28
2018-04-24T05:48:32.590Z,11.31
2018-04-24T05:58:32.673Z,11.54
2018-04-24T06:08:32.706Z,11.7
2018-04-24T06:18:32.705Z,11.68
2018-04-24T06:28:32.737Z,11.77
2018-04-24T06:38:32.673Z,12.01
2018-04-24T06:48:33.577Z,11.99
2018-04-24T06:58:32.621Z,12.23
2018-04-24T07:08:32.696Z,12.29
2018-04-24T07:18:32.717Z,12.38
2018-04-24T07:28:32.907Z,12.45
2018-04-24T07:38:32.881Z,12.71
2018-04-24T07:48:33.427Z,12.77
2018-04-24T07:58:32.818Z,12.87
2018-04-24T08:08:32.852Z,12.93
2018-04-24T08:18:32.773Z,12.96
2018-04-24T08:28:32.737Z,13.06
2018-04-24T08:38:33.170Z,13.15
2018-04-24T08:48:33.331Z,13.44
2018-04-24T08:58:32.949Z,13.49
2018-04-24T09:08:32.874Z,14.09
2018-04-24T09:18:33.226Z,14.47
2018-04-24T09:28:32.797Z,14.07
2018-04-24T09:38:32.840Z,15.15
2018-04-24T09:48:32.815Z,14.86
2018-04-24T09:58:32.826Z,14.62
2018-04-24T10:08:32.997Z,14.65
2018-04-24T10:18:32.867Z,14.5
2018-04-24T10:28:32.855Z,14.64
2018-04-24T10:38:33.001Z,14.54
2018-04-24T10:48:32.934Z,14.64
2018-04-24T10:58:32.916Z,15.06
2018-04-24T11:08:32.881Z,15.36
2018-04-24T11:18:32.900Z,15.75
2018-04-24T11:28:33.007Z,15.74
2018-04-24T11:38:32.939Z,16.22
2018-04-24T11:48:32.933Z,15.96
2018-04-24T11:58:32.981Z,15.76
2018-04-24T12:08:33.133Z,15.63
2018-04-24T12:18:33.117Z,15.92
2018-04-24T12:28:32.974Z,16.14
2018-04-24T12:38:32.993Z,15.99
2018-04-24T12:48:33.118Z,15.46
2018-04-24T12:58:33.218Z,15.35
2018-04-24T13:08:33.126Z,15.26
2018-04-24T13:18:33.217Z,15.41
2018-04-24T13:28:33.075Z,15.19
2018-04-24T13:38:33.050Z,15.13
2018-04-24T13:48:33.098Z,15.13
2018-04-24T13:58:33.064Z,15.3
2018-04-24T14:08:33.075Z,15.31
2018-04-24T14:18:33.133Z,15.39
2018-04-24T14:28:33.184Z,15.27
2018-04-24T14:38:33.210Z,15.52
2018-04-24T14:48:33.283Z,15.6
2018-04-24T14:58:33.149Z,15.57
2018-04-24T15:08:33.159Z,15.86
2018-04-24T15:18:33.151Z,15.92
2018-04-24T15:28:33.183Z,16.04
2018-04-24T15:38:33.289Z,16.14
2018-04-24T15:48:33.197Z,16.3
2018-04-24T15:58:33.362Z,16.11
2018-04-24T16:08:33.192Z,16.18
2018-04-24T16:18:33.200Z,16.53
2018-04-24T16:28:33.227Z,15.99
2018-04-24T16:38:33.265Z,15.88
2018-04-24T16:48:33.349Z,15.86
2018-04-24T16:58:33.258Z,15.74
2018-04-24T17:08:33.251Z,15.46
2018-04-24T17:18:33.378Z,15.46
2018-04-24T17:28:33.304Z,15.45
2018-04-24T17:38:33.784Z,15.33
2018-04-24T17:48:33.752Z,15.11
2018-04-24T17:58:33.379Z,15.03
2018-04-24T18:08:33.551Z,14.84
2018-04-24T18:18:33.329Z,14.84
2018-04-24T18:28:33.410Z,14.67
2018-04-24T18:38:33.360Z,14.62
2018-04-24T18:48:33.439Z,14.44
2018-04-24T18:58:33.503Z,14.35
2018-04-24T19:08:33.392Z,14.32
2018-04-24T19:18:46.861Z,14.16
2018-04-24T19:28:33.412Z,13.95
2018-04-24T19:38:33.409Z,13.8
2018-04-24T19:48:33.438Z,13.62
2018-04-24T19:58:33.402Z,13.83
2018-04-24T20:08:33.422Z,13.74
2018-04-24T20:18:33.577Z,13.77
2018-04-24T20:28:33.494Z,13.77
2018-04-24T20:38:33.512Z,13.79
2018-04-24T20:48:33.434Z,13.76
2018-04-24T20:58:34.086Z,13.79
2018-04-24T21:08:33.570Z,13.89
2018-04-24T21:18:33.490Z,13.89
2018-04-24T21:28:33.842Z,13.94
2018-04-24T21:38:33.499Z,13.98
2018-04-24T21:48:33.542Z,13.89
2018-04-24T21:58:33.724Z,13.99
2018-04-24T22:08:33.808Z,14.16
2018-04-24T22:18:33.920Z,14.14
2018-04-24T22:28:33.525Z,14.34
2018-04-24T22:38:33.548Z,14.25
2018-04-24T22:48:33.799Z,14.35
2018-04-24T22:58:33.667Z,14.24
2018-04-24T23:08:33.554Z,14.39
2018-04-24T23:18:33.565Z,14.44
2018-04-24T23:28:33.584Z,14.47
2018-04-24T23:38:33.588Z,14.56
2018-04-24T23:48:33.652Z,14.5
2018-04-24T23:58:33.614Z,14.52
